Laurentian Fan: Past 24 Hour Conditions

 

Winterland

11:30 PM NDT 22 September 2014
This table is a summary of hourly weather conditions for the past 24 hours.
Date / Time
(NDT)
Wind(knots) Conditions Visibility(km) Pressure(kPa) Air tempC) Relative humidity(%) Dew pointC) Humidex
22 September 2014
23:30 SW 24 gust 33 Cloudy 4 100.5 16 98 16 *
22:30 SW 18 gust 29 Cloudy 6 100.5 16 98 16 *
21:30 SW 20 Cloudy 5 100.5 16 98 16 *
20:30 SW 24 gust 31 Cloudy 4 100.4 17 98 17 *
19:30 SW 23 gust 31 Cloudy 3 100.3 18 98 18 *
18:30 SSW 28 gust 42 Light Rain 2 100.2 20 97 19 *
17:30 S 31 gust 45 Light Rain 2 100.1 19 97 19 *
16:30 S 30 gust 50 Cloudy 11 100.2 20 94 19 27
15:30 S 35 gust 44 Cloudy 10 100.3 20 95 19 *
14:30 S 31 gust 44 Cloudy 4 100.5 19 97 18 *
13:30 S 30 gust 48 Light Rain 3 100.7 18 98 18 *
12:30 S 31 gust 42 Light Rain 6 100.8 18 97 18 *
11:30 S 31 gust 43 Light Rain 13 101.0 18 89 17 *
10:30 S 27 gust 35 Cloudy 15 101.1 19 83 16 *
9:30 S 23 gust 35 Sunny 15 101.3 19 84 16 *
8:30 S 24 gust 34 Mainly Sunny 15 101.3 18 89 16 *
7:30 S 20 gust 30 Mainly Sunny 15 101.4 17 88 15 *
6:30 S 20 gust 30 Clear 15 101.5 17 89 15 *
5:30 S 20 gust 29 Clear 15 101.5 18 88 16 *
4:30 SSW 15 gust 21 Mostly Cloudy 13 101.6 18 92 17 *
3:30 SSW 17 gust 22 Cloudy 13 101.7 19 93 17 *
2:30 SW 15 gust 21 Cloudy 13 101.8 18 93 17 *
1:30 SW 15 gust 21 Cloudy 13 101.8 18 95 17 *
0:30 SW 14 gust 21 Cloudy 13 101.9 18 95 17 *
21 September 2014
23:30 SW 11 gust 20 Mostly Cloudy 15 101.9 17 93 16 *
 
Map of Atlantic - Newfoundland marine weather areas Southwestern Grand Banks - 44138 Banquereau - 44139 Tail of the Bank - 44140 Nickerson Bank - 44251 Northeast Burgeo Bank - 44255 Blanc-Sablon Airport Cap Whittle Chevery Natashquan Airport Heath Point Miscou Island Grand Étang Ingonish Beach North Mountain St.Paul Island J.A. Douglas McCurdy Sydney Airport Charlottetown Airport East Point North Cape Argentia Bonavista Burgeo Cape Race Corner Brook Daniel's Harbour Englee Ferolle Point La Scie Port aux Basques Rocky Harbour Sagona Island St. Anthony Airport St. John's Int'l Airport St. Lawrence Stephenville Airport Twillingate Winterland Wreckhouse Cartwright Airport Mary's Harbour Grates Cove Pool's Island Marticot Island Long Pond Îles de la Madeleine Airport
Legend: buoyBuoy land stationLand Station